Aeroporto :
LOGIN :

Iscrizione | Disclaimer

   EN    FR    IT 

 










Sommario :    VFR   VFR Marginale   IFR   IFR Intensivo   IFR Molto Intensivo
Visibilità : 
Base nubi : 
>= 8 km
>= 3000ft
5 / 8 km
1000 / 3000 ft
1500m / 5 km
500 / 1000 ft
800 / 1500m
200 / 500 ft
< 800m
< 200 ft
Simboli :   Temporali  Nebbia  Neve Forte  Precipitazioni Forti  Vento > 20 kt
SIGMETs :   Varie  Temporali  Ghiacco  Turbolenza  Onda orograficha  Ceneri Vulcaniche






- Altitudine del aeroporto : 978 ft
- Codice IATA : LNZ


LOWL - Linz

ULTIMO METAR :
  • 270450Z 25013KT 9999 FEW016 SCT040 BKN081 02/M02 Q1009 NOSIG

METARs OBSOLETI :
  • 270420Z 26013KT 9999 FEW016 SCT038 BKN081 02/M02 Q1009 NOSIG
  • 270350Z AUTO 26014KT 9999 FEW024 BKN030 BKN042 02/M01 Q1009
  • 270320Z AUTO 26016KT 9999 FEW028 SCT034 BKN042 02/M01 Q1008
  • 270250Z AUTO 26017KT 9999 FEW030 SCT032 BKN070 02/M01 Q1008
  • 270220Z AUTO 25016KT 9999 FEW019 SCT034 BKN070 02/M01 Q1007

TAF AMD TAF LOWL
Valido dal 27 a 01 ore il 28 a 00 ore UTC


270150Z 2701/2724 27010KT 9999 SCT020 BKN035 TX06/2714Z TN02/2702Z
TEMPO 2701/2709 27015KT 4000 -SHSN BKN012
TEMPO 2709/2713 28017G27KT
BECMG 2713/2715 07007KT
BECMG 2719/2721 27010KT
TEMPO 2721/2724 28020G35KT 4000 SHRASN



MetMap, La meteo Aeronautica in un colpo d'occhio ! - Copyright ORBIFLY Dicembre 2007 - Disclaimer

ORBIFLY MET'MAP TEAM :

Programmazione e sviluppo : Alexandra Zaïnal
Concezione : Baudouin d'Aumeries
Aiuto per la programmazione : Marc-Olivier Méhu
Supporto tecnico e logistico : Manuel Goepfert
Aiuto per la traduzione : Arnaldo La Scala

Contatto : metmap@orbifly.com




FONTI E CREDITI :

   NOAA